This is the latest recevied weather packets stored in our database for station/object K5WNG. If no packets are shown the sender has not sent any weather packets the latest 1 day(s).
| Time | Temp. | Humidity | Pressure | Rain* | Wind** | Luminosity | Snow |
|---|---|---|---|---|---|---|---|
| 1778094917 | 23.89° C | 72% | 1011.6 hPa | 0 mm | - | 407 W/m² | - |
| 1778094320 | 23.89° C | 74% | 1011.9 hPa | 0 mm | - | 240 W/m² | - |
| 1778093417 | 24.44° C | 72% | 1011.8 hPa | 0 mm | - | 373 W/m² | - |
| 1778091321 | 25° C | 70% | 1011.6 hPa | 0 mm | - | 904 W/m² | - |
| 1778091018 | 25° C | 70% | 1011.6 hPa | 0 mm | - | 1017 W/m² | - |
| 1778090721 | 24.44° C | 70% | 1011.5 hPa | 0 mm | - | 1007 W/m² | - |
| 1778090118 | 23.89° C | 72% | 1011.4 hPa | 0 mm | - | 1013 W/m² | - |
| 1778088016 | 22.22° C | 75% | 1011.6 hPa | 0 mm | - | 984 W/m² | - |
| 1778087119 | 21.67° C | 77% | 1011.5 hPa | 0 mm | - | 938 W/m² | - |
| 1778086819 | 21.67° C | 78% | 1011.5 hPa | 0 mm | - | 943 W/m² | - |
| 1778086516 | 21.11° C | 80% | 1011.5 hPa | 0 mm | - | 933 W/m² | - |
| 1778085616 | 18.89° C | 85% | 1012.1 hPa | 0.25 mm | - | 814 W/m² | - |
| 1778085316 | 18.33° C | 87% | 1012.2 hPa | 0.25 mm | - | 649 W/m² | - |
| 1778084733 | 17.22° C | 92% | 1012.4 hPa | 0.25 mm | - | 460 W/m² | - |
| 1778083220 | 17.78° C | 92% | 1013.1 hPa | 0.25 mm | - | 128 W/m² | - |
| 1778082617 | 18.33° C | 91% | 1013.1 hPa | 0.25 mm | - | 40 W/m² | - |
| 1778082329 | 18.89° C | 90% | 1012.7 hPa | 0.25 mm | - | 53 W/m² | - |
| 1778081432 | 20° C | 89% | 1012.5 hPa | 0 mm | - | 66 W/m² | - |
| 1778080832 | 21.67° C | 86% | 1012 hPa | 0 mm | - | 37 W/m² | - |
| 1778079329 | 25.56° C | 85% | 1010.8 hPa | 0 mm | - | 174 W/m² | - |
| 1778077533 | 25.56° C | 84% | 1010.1 hPa | 0 mm | - | 292 W/m² | - |
| 1778077230 | 25.56° C | 85% | 1009.9 hPa | 0 mm | - | 300 W/m² | - |
| 1778076330 | 25° C | 87% | 1010.2 hPa | 0 mm | - | 200 W/m² | - |
| 1778076030 | 25° C | 87% | 1010.3 hPa | 0 mm | - | 189 W/m² | - |
| 1778075730 | 25° C | 87% | 1010.3 hPa | 0 mm | - | 173 W/m² | - |
* Rain latest hour (hover to see other rain measurements)
** Current wind speed in m/s (hover to see current wind gust speed)